Time;durP1;ratioP1;P1;durP2;ratioP2;P2;SDS_P1;SDS_P2;PMS_P1;PMS_P2;Temp;Humidity;BMP_temperature;BMP_pressure;BME280_temperature;BME280_humidity;BME280_pressure;Samples;Min_cycle;Max_cycle;Signal;HPM_P1;HPM_P2
2023/05/20 00:01:17;;;;;;;30.17;18.65;;;11.80;85.10;;;;;;4898304;29;20623;-87
2023/05/20 00:03:43;;;;;;;28.55;17.88;;;11.80;85.10;;;;;;4916079;29;20076;-87
2023/05/20 00:06:09;;;;;;;34.15;19.88;;;11.90;85.20;;;;;;4896775;29;20041;-88
2023/05/20 00:08:34;;;;;;;30.77;19.15;;;11.80;85.40;;;;;;4884682;29;20040;-88
2023/05/20 00:11:00;;;;;;;34.28;20.90;;;11.90;85.50;;;;;;4881340;29;20571;-88
2023/05/20 00:13:26;;;;;;;30.63;19.42;;;11.90;85.60;;;;;;4878844;29;20024;-88
2023/05/20 00:15:52;;;;;;;30.13;20.17;;;11.90;85.70;;;;;;4881481;29;20052;-87
2023/05/20 00:18:18;;;;;;;31.90;20.33;;;11.80;85.60;;;;;;4880708;29;20055;-87
2023/05/20 00:20:44;;;;;;;30.08;19.95;;;11.90;85.70;;;;;;4882354;29;20300;-87
2023/05/20 00:23:09;;;;;;;32.97;20.05;;;11.90;85.70;;;;;;4876859;29;20463;-87
2023/05/20 00:25:35;;;;;;;30.73;20.67;;;11.90;85.70;;;;;;4881644;29;20092;-87
2023/05/20 00:28:01;;;;;;;31.15;21.05;;;11.80;85.90;;;;;;4881405;29;20430;-88
2023/05/20 00:30:27;;;;;;;33.33;21.08;;;11.80;86.00;;;;;;4884769;29;20128;-88
2023/05/20 00:32:52;;;;;;;40.97;22.20;;;11.80;86.30;;;;;;4883990;29;20382;-88
2023/05/20 00:35:18;;;;;;;34.95;21.85;;;11.80;86.30;;;;;;4875505;29;20020;-88
2023/05/20 00:37:44;;;;;;;38.33;22.60;;;11.80;86.30;;;;;;4874084;29;20076;-87
2023/05/20 00:40:10;;;;;;;29.67;21.13;;;11.80;86.40;;;;;;4872054;29;20032;-89
2023/05/20 00:42:36;;;;;;;36.00;22.75;;;11.90;86.50;;;;;;4893392;29;20051;-87
2023/05/20 00:45:01;;;;;;;34.20;23.23;;;11.80;86.40;;;;;;4883432;29;20029;-87
2023/05/20 00:47:30;;;;;;;35.38;22.58;;;11.90;86.50;;;;;;4872247;29;20152;-88
2023/05/20 00:49:57;;;;;;;30.63;22.70;;;11.80;86.60;;;;;;4900757;29;20025;-88
2023/05/20 00:52:23;;;;;;;31.42;22.92;;;11.80;86.60;;;;;;4877553;29;20520;-87
2023/05/20 00:54:50;;;;;;;33.53;22.98;;;11.80;86.60;;;;;;4873095;29;20295;-87
2023/05/20 00:57:16;;;;;;;32.15;22.23;;;11.90;86.60;;;;;;4873751;29;20329;-86
2023/05/20 00:59:42;;;;;;;30.23;20.88;;;11.80;86.70;;;;;;4889548;29;20033;-88
2023/05/20 01:02:08;;;;;;;32.33;21.58;;;11.90;86.70;;;;;;4880034;29;20071;-87
2023/05/20 01:04:33;;;;;;;33.83;22.75;;;11.90;86.50;;;;;;4881070;29;20471;-87
2023/05/20 01:07:03;;;;;;;29.73;22.00;;;11.90;86.60;;;;;;4870217;29;20104;-88
2023/05/20 01:09:30;;;;;;;30.05;20.40;;;11.90;86.60;;;;;;4874594;29;20036;-86
2023/05/20 01:12:08;;;;;;;32.45;22.08;;;11.80;86.60;;;;;;4872395;29;20084;-88
2023/05/20 01:14:41;;;;;;;32.95;22.02;;;11.80;86.80;;;;;;4877573;29;20032;-87
2023/05/20 01:17:11;;;;;;;28.80;20.03;;;11.80;86.70;;;;;;4882774;29;20052;-88
2023/05/20 01:19:44;;;;;;;33.33;21.88;;;11.80;86.70;;;;;;4877175;29;20017;-88
2023/05/20 01:22:11;;;;;;;31.10;19.75;;;11.80;86.80;;;;;;4875023;29;20044;-88
2023/05/20 01:24:42;;;;;;;26.30;19.48;;;11.80;86.70;;;;;;4876020;29;20448;-87
2023/05/20 01:27:12;;;;;;;27.63;19.77;;;11.70;86.60;;;;;;4878855;29;20378;-86
2023/05/20 01:29:39;;;;;;;28.98;20.67;;;11.80;86.60;;;;;;4876320;29;20048;-87
2023/05/20 01:32:25;;;;;;;26.52;18.35;;;11.80;86.50;;;;;;4880744;29;20036;-86
2023/05/20 01:34:52;;;;;;;30.40;19.23;;;11.80;86.50;;;;;;4876851;29;20605;-86
2023/05/20 01:37:20;;;;;;;26.83;18.38;;;11.80;86.50;;;;;;4874179;29;20040;-87
2023/05/20 01:39:48;;;;;;;24.45;17.02;;;11.80;86.30;;;;;;4897123;29;20028;-86
2023/05/20 01:42:15;;;;;;;23.23;17.30;;;11.80;86.30;;;;;;4894664;29;20151;-87
2023/05/20 01:44:42;;;;;;;23.65;17.83;;;11.80;86.20;;;;;;4879335;29;20024;-87
2023/05/20 01:47:07;;;;;;;27.52;17.63;;;11.80;86.10;;;;;;4883249;29;20052;-87
2023/05/20 01:49:33;;;;;;;26.10;17.38;;;11.80;86.00;;;;;;4882230;29;20032;-86
2023/05/20 01:51:59;;;;;;;27.13;18.00;;;11.80;85.80;;;;;;4895806;29;20052;-88
2023/05/20 01:54:25;;;;;;;27.73;16.05;;;11.80;85.70;;;;;;4893242;29;20060;-85
2023/05/20 01:56:51;;;;;;;21.92;16.08;;;11.70;85.80;;;;;;4886639;29;20116;-87
2023/05/20 01:59:16;;;;;;;22.25;16.27;;;11.80;85.60;;;;;;4879838;29;20481;-86
2023/05/20 02:01:42;;;;;;;22.30;15.40;;;11.70;85.40;;;;;;4879369;29;20041;-86
2023/05/20 02:04:08;;;;;;;23.13;15.85;;;11.70;85.50;;;;;;4873728;29;20025;-87
2023/05/20 02:06:34;;;;;;;23.90;15.27;;;11.70;85.60;;;;;;4869761;29;20045;-87
2023/05/20 02:08:59;;;;;;;18.60;14.65;;;11.70;85.40;;;;;;4877881;29;20184;-87
2023/05/20 02:11:25;;;;;;;22.08;14.23;;;11.70;85.10;;;;;;4876850;29;20470;-88
2023/05/20 02:13:51;;;;;;;21.73;13.23;;;11.70;85.10;;;;;;4877592;29;20421;-88
2023/05/20 02:16:17;;;;;;;22.77;14.70;;;11.70;85.00;;;;;;4873719;29;20354;-87
2023/05/20 02:18:43;;;;;;;19.02;12.93;;;11.60;84.90;;;;;;4888643;29;20028;-87
2023/05/20 02:21:09;;;;;;;21.70;13.07;;;11.60;84.60;;;;;;4884245;29;20112;-87
2023/05/20 02:23:34;;;;;;;23.67;13.70;;;11.70;84.40;;;;;;4876174;29;21043;-88
2023/05/20 02:26:01;;;;;;;22.63;12.82;;;11.70;84.10;;;;;;4893559;29;20431;-87
2023/05/20 02:28:26;;;;;;;21.02;13.15;;;11.60;83.90;;;;;;4878971;29;20028;-88
2023/05/20 02:30:52;;;;;;;21.65;12.95;;;11.60;83.90;;;;;;4890258;29;20488;-87
2023/05/20 02:33:19;;;;;;;22.25;11.50;;;11.60;83.90;;;;;;4876442;29;20025;-87
2023/05/20 02:35:45;;;;;;;19.90;12.77;;;11.60;83.90;;;;;;4866173;29;20035;-87
2023/05/20 02:38:11;;;;;;;20.95;12.15;;;11.60;83.90;;;;;;4875002;29;20470;-88
2023/05/20 02:40:37;;;;;;;18.38;12.25;;;11.60;83.70;;;;;;4894375;29;20446;-88
2023/05/20 02:43:03;;;;;;;18.65;11.88;;;11.60;83.50;;;;;;4886608;29;20059;-87
2023/05/20 02:45:29;;;;;;;18.52;12.02;;;11.60;83.50;;;;;;4884017;29;20120;-87
2023/05/20 02:47:55;;;;;;;23.73;12.32;;;11.60;83.20;;;;;;4883327;29;20556;-87
2023/05/20 02:50:21;;;;;;;17.83;12.48;;;11.60;83.10;;;;;;4882006;29;20120;-86
2023/05/20 02:52:47;;;;;;;16.48;11.27;;;11.60;83.00;;;;;;4885260;29;20128;-87
2023/05/20 02:55:13;;;;;;;19.25;12.23;;;11.60;83.00;;;;;;4891521;29;20541;-87
2023/05/20 02:57:39;;;;;;;19.70;12.13;;;11.60;82.90;;;;;;4879863;29;20127;-87
2023/05/20 03:00:06;;;;;;;22.27;12.55;;;11.60;82.80;;;;;;4878694;29;20147;-87
2023/05/20 03:02:33;;;;;;;18.73;11.85;;;11.60;82.80;;;;;;4898028;29;20033;-87
2023/05/20 03:04:59;;;;;;;18.17;12.55;;;11.60;82.80;;;;;;4882219;29;20087;-88
2023/05/20 03:07:25;;;;;;;15.73;10.73;;;11.50;82.80;;;;;;4884598;29;20060;-87
2023/05/20 03:09:51;;;;;;;15.85;11.15;;;11.50;82.80;;;;;;4881231;29;20053;-88
2023/05/20 03:12:17;;;;;;;18.85;13.18;;;11.60;82.80;;;;;;4895731;29;20041;-87
2023/05/20 03:14:43;;;;;;;19.27;11.68;;;11.50;82.60;;;;;;4882643;29;20032;-87
2023/05/20 03:17:10;;;;;;;20.10;11.02;;;11.50;82.50;;;;;;4894038;29;20428;-88
2023/05/20 03:19:36;;;;;;;17.70;11.82;;;11.50;82.40;;;;;;4892645;29;20024;-88
2023/05/20 03:22:02;;;;;;;17.48;10.75;;;11.50;82.50;;;;;;4878868;29;20564;-88
2023/05/20 03:24:28;;;;;;;21.48;12.40;;;11.50;82.40;;;;;;4900879;29;20064;-87
2023/05/20 03:26:54;;;;;;;18.45;11.25;;;11.40;82.40;;;;;;4898937;29;20044;-87
2023/05/20 03:29:21;;;;;;;17.83;12.18;;;11.50;82.50;;;;;;4882724;29;20028;-87
2023/05/20 03:31:47;;;;;;;19.48;11.45;;;11.40;82.70;;;;;;4874952;29;20036;-87
2023/05/20 03:34:13;;;;;;;16.73;11.93;;;11.40;82.70;;;;;;4878632;29;20032;-88
2023/05/20 03:36:39;;;;;;;18.20;11.52;;;11.30;82.80;;;;;;4890975;29;20088;-88
2023/05/20 03:39:05;;;;;;;18.33;10.70;;;11.30;82.70;;;;;;4890296;29;20119;-87
2023/05/20 03:41:31;;;;;;;19.50;11.45;;;11.30;82.90;;;;;;4882674;29;20047;-87
2023/05/20 03:43:59;;;;;;;22.80;12.27;;;11.30;82.80;;;;;;4877073;29;20040;-87
2023/05/20 03:46:25;;;;;;;17.17;11.70;;;11.30;82.80;;;;;;4875484;29;20107;-88
2023/05/20 03:48:51;;;;;;;18.15;11.77;;;11.30;83.00;;;;;;4875777;29;20492;-88
2023/05/20 03:51:17;;;;;;;16.95;11.75;;;11.30;82.80;;;;;;4876586;29;20037;-87
2023/05/20 03:53:42;;;;;;;18.23;11.43;;;11.30;82.70;;;;;;4870908;29;20405;-87
2023/05/20 03:56:08;;;;;;;19.95;11.60;;;11.30;82.80;;;;;;4871963;29;20116;-87
2023/05/20 03:58:34;;;;;;;18.35;12.27;;;11.30;82.70;;;;;;4878907;29;20040;-87
2023/05/20 04:00:59;;;;;;;18.42;11.63;;;11.30;82.80;;;;;;4895390;29;20039;-87
2023/05/20 04:03:27;;;;;;;20.83;12.02;;;11.30;82.80;;;;;;4878239;29;20462;-87
2023/05/20 04:05:53;;;;;;;18.55;11.05;;;11.30;82.80;;;;;;4877625;29;20389;-87
2023/05/20 04:08:20;;;;;;;16.83;11.57;;;11.30;82.90;;;;;;4884031;29;20021;-86
2023/05/20 04:10:46;;;;;;;21.30;12.68;;;11.30;82.80;;;;;;4877030;29;20075;-88
2023/05/20 04:13:12;;;;;;;17.58;11.50;;;11.30;82.70;;;;;;4894439;29;20461;-87
2023/05/20 04:15:37;;;;;;;17.30;11.00;;;11.30;82.60;;;;;;4893749;29;20142;-88
2023/05/20 04:18:06;;;;;;;18.55;11.68;;;11.30;82.60;;;;;;4880683;29;20060;-87
2023/05/20 04:20:33;;;;;;;16.98;11.00;;;11.30;82.60;;;;;;4884807;29;20080;-88
2023/05/20 04:22:58;;;;;;;18.73;11.27;;;11.30;82.70;;;;;;4904963;29;20032;-87
2023/05/20 04:25:25;;;;;;;21.85;12.35;;;11.30;82.60;;;;;;4888081;29;20024;-88
2023/05/20 04:27:52;;;;;;;17.33;11.10;;;11.30;82.70;;;;;;4910600;29;20051;-86
2023/05/20 04:30:20;;;;;;;18.88;11.60;;;11.40;82.50;;;;;;4893406;29;20032;-87
2023/05/20 04:32:47;;;;;;;20.45;11.38;;;11.30;82.50;;;;;;4891809;29;20500;-87
2023/05/20 04:35:13;;;;;;;18.27;11.10;;;11.40;82.40;;;;;;4888019;29;20474;-86
2023/05/20 04:37:39;;;;;;;18.55;11.32;;;11.40;82.50;;;;;;4894091;29;20032;-87
2023/05/20 04:40:08;;;;;;;18.70;11.23;;;11.40;82.30;;;;;;4891883;29;20031;-87
2023/05/20 04:42:34;;;;;;;21.70;12.65;;;11.50;82.20;;;;;;4880036;29;20134;-87
2023/05/20 04:45:00;;;;;;;18.83;10.60;;;11.50;82.10;;;;;;4877094;29;20055;-87
2023/05/20 04:47:29;;;;;;;21.90;11.63;;;11.50;82.00;;;;;;4883996;29;20043;-88
2023/05/20 04:49:59;;;;;;;18.05;11.38;;;11.50;81.90;;;;;;4878440;29;20041;-88
2023/05/20 04:52:24;;;;;;;17.58;11.18;;;11.60;82.00;;;;;;4882773;29;20044;-87
2023/05/20 04:54:51;;;;;;;19.33;11.40;;;11.60;81.80;;;;;;4876958;29;20029;-87
2023/05/20 04:57:19;;;;;;;21.42;10.82;;;11.60;81.70;;;;;;4881332;29;20048;-87
2023/05/20 04:59:46;;;;;;;21.33;11.75;;;11.60;81.60;;;;;;4877755;29;20037;-88
2023/05/20 05:02:12;;;;;;;16.15;10.43;;;11.70;81.70;;;;;;4892407;29;20131;-87
2023/05/20 05:04:37;;;;;;;17.75;10.95;;;11.70;81.60;;;;;;4886231;29;20131;-86
2023/05/20 05:07:04;;;;;;;18.05;10.00;;;11.70;81.30;;;;;;4891084;29;20036;-87
2023/05/20 05:09:29;;;;;;;18.30;10.93;;;11.90;81.20;;;;;;4892983;29;20649;-87
2023/05/20 05:11:55;;;;;;;17.20;10.63;;;11.90;81.20;;;;;;4889566;29;20041;-87
2023/05/20 05:14:22;;;;;;;16.45;11.15;;;12.00;81.20;;;;;;4891820;29;20021;-88
2023/05/20 05:16:48;;;;;;;18.25;10.82;;;12.10;80.40;;;;;;4881973;29;20036;-86
2023/05/20 05:19:14;;;;;;;22.60;11.25;;;12.60;80.40;;;;;;4874263;29;20041;-87
2023/05/20 05:21:40;;;;;;;16.30;9.80;;;13.70;76.10;;;;;;4887368;29;20394;-87
2023/05/20 05:24:06;;;;;;;15.95;9.35;;;14.70;72.40;;;;;;4875641;29;20402;-87
2023/05/20 05:26:32;;;;;;;16.05;8.40;;;15.60;69.40;;;;;;4879198;29;20045;-89
2023/05/20 05:29:18;;;;;;;13.07;8.52;;;16.60;66.00;;;;;;4878897;29;20039;-88
2023/05/20 05:31:44;;;;;;;14.98;8.02;;;17.00;62.80;;;;;;4899707;29;20060;-87
2023/05/20 05:34:09;;;;;;;15.30;7.93;;;17.40;61.90;;;;;;4892718;29;20028;-88
2023/05/20 05:36:38;;;;;;;14.07;7.63;;;17.50;60.90;;;;;;4901789;29;20096;-88
2023/05/20 05:39:04;;;;;;;14.80;7.97;;;17.60;60.40;;;;;;4881646;29;20040;-89
2023/05/20 05:41:30;;;;;;;12.68;7.85;;;17.40;61.00;;;;;;4884720;29;20222;-89
2023/05/20 05:43:58;;;;;;;13.27;8.02;;;17.50;61.90;;;;;;4885904;29;20029;-88
2023/05/20 05:46:24;;;;;;;14.27;8.25;;;17.60;60.80;;;;;;4887209;29;20043;-88
2023/05/20 05:49:02;;;;;;;;;;;;;;;;;;;;;
2023/05/20 05:51:29;;;;;;;15.00;9.40;;;17.00;61.60;;;;;;4896437;29;20048;-88
2023/05/20 05:53:55;;;;;;;15.77;9.40;;;16.70;63.30;;;;;;4884835;29;20370;-87
2023/05/20 05:56:21;;;;;;;16.90;10.40;;;16.10;64.70;;;;;;4883743;29;20107;-88
2023/05/20 05:58:50;;;;;;;16.23;9.90;;;15.50;67.10;;;;;;4888114;29;20039;-88
2023/05/20 06:01:16;;;;;;;17.60;11.13;;;15.00;68.90;;;;;;4880417;29;20040;-89
2023/05/20 06:03:41;;;;;;;15.85;10.63;;;14.70;70.10;;;;;;4881958;29;20047;-88
2023/05/20 06:06:07;;;;;;;18.65;10.93;;;14.50;71.50;;;;;;4876068;29;20093;-87
2023/05/20 06:08:33;;;;;;;17.33;11.02;;;14.10;71.80;;;;;;4883006;29;20036;-87
2023/05/20 06:10:59;;;;;;;18.95;10.90;;;14.10;72.60;;;;;;4873315;29;20045;-86
2023/05/20 06:13:24;;;;;;;17.23;11.13;;;14.20;72.50;;;;;;4866276;29;20363;-86
2023/05/20 06:15:50;;;;;;;15.77;10.40;;;14.40;72.50;;;;;;4876609;29;20017;-86
2023/05/20 06:18:16;;;;;;;17.10;10.93;;;14.30;72.10;;;;;;4870400;29;20486;-88
2023/05/20 06:20:42;;;;;;;18.05;11.10;;;14.30;72.80;;;;;;4871538;29;20037;-86
2023/05/20 06:23:08;;;;;;;18.13;11.57;;;14.40;72.40;;;;;;4870061;29;20482;-86
2023/05/20 06:25:34;;;;;;;14.73;10.88;;;14.30;71.70;;;;;;4870130;29;20096;-87
2023/05/20 06:28:00;;;;;;;16.38;11.00;;;14.30;71.60;;;;;;4866440;29;20125;-88
2023/05/20 06:30:26;;;;;;;18.33;10.70;;;14.10;72.60;;;;;;4871884;29;20033;-88
2023/05/20 06:32:52;;;;;;;20.42;11.25;;;14.20;72.40;;;;;;4878888;29;20181;-87
2023/05/20 06:35:17;;;;;;;18.77;11.27;;;14.30;72.60;;;;;;4867491;29;20084;-87
2023/05/20 06:37:43;;;;;;;18.80;10.88;;;14.30;72.10;;;;;;4865175;29;20124;-88
2023/05/20 06:40:09;;;;;;;15.27;11.27;;;14.50;72.30;;;;;;4874168;29;20040;-86
2023/05/20 06:42:35;;;;;;;16.00;11.07;;;14.70;72.30;;;;;;4869223;29;20045;-86
2023/05/20 06:45:01;;;;;;;19.92;11.77;;;14.90;71.10;;;;;;4867939;29;20275;-87
2023/05/20 06:47:27;;;;;;;18.77;11.82;;;14.90;70.70;;;;;;4869452;29;20044;-85
2023/05/20 06:49:52;;;;;;;22.67;11.68;;;15.00;70.90;;;;;;4863752;29;20396;-87
2023/05/20 06:52:18;;;;;;;16.55;11.05;;;15.10;70.50;;;;;;4865332;29;20049;-86
2023/05/20 06:54:44;;;;;;;18.50;11.98;;;15.00;69.90;;;;;;4866839;29;20080;-88
2023/05/20 06:57:10;;;;;;;19.08;12.18;;;15.10;69.50;;;;;;4869664;29;20043;-87
2023/05/20 06:59:36;;;;;;;18.52;12.23;;;15.20;69.50;;;;;;4879080;29;20190;-86
2023/05/20 07:02:02;;;;;;;17.73;11.35;;;15.40;69.30;;;;;;4870418;29;20037;-86
2023/05/20 07:04:31;;;;;;;20.55;12.27;;;15.60;69.20;;;;;;4866729;29;20072;-87
2023/05/20 07:06:59;;;;;;;20.20;11.40;;;15.80;68.00;;;;;;4859209;29;20049;-88
2023/05/20 07:09:25;;;;;;;19.77;12.68;;;15.80;68.10;;;;;;4859874;29;20082;-87
2023/05/20 07:11:51;;;;;;;20.35;12.40;;;15.90;67.70;;;;;;4860613;29;20080;-87
2023/05/20 07:14:17;;;;;;;17.05;11.98;;;15.80;67.60;;;;;;4860447;29;20025;-86
2023/05/20 07:16:43;;;;;;;15.82;12.38;;;16.00;67.90;;;;;;4862288;29;20124;-86
2023/05/20 07:19:08;;;;;;;19.77;12.45;;;16.10;67.00;;;;;;4863627;29;20213;-87
2023/05/20 07:21:35;;;;;;;16.25;11.23;;;16.10;66.50;;;;;;4872616;29;20044;-89
2023/05/20 07:24:00;;;;;;;16.05;10.65;;;16.00;65.30;;;;;;4859546;29;20199;-87
2023/05/20 07:26:26;;;;;;;16.88;10.63;;;16.00;65.80;;;;;;4858090;29;20051;-87
2023/05/20 07:28:55;;;;;;;16.23;11.48;;;16.10;65.80;;;;;;4862701;29;20072;-88
2023/05/20 07:31:20;;;;;;;16.35;10.60;;;16.30;66.70;;;;;;4852758;29;20119;-87
2023/05/20 07:33:46;;;;;;;19.55;11.20;;;16.50;65.20;;;;;;4855007;29;21424;-88
2023/05/20 07:36:12;;;;;;;19.48;11.07;;;16.70;64.60;;;;;;4861379;29;20445;-87
2023/05/20 07:38:38;;;;;;;17.02;11.25;;;16.70;63.70;;;;;;4864734;29;20308;-89
2023/05/20 07:41:04;;;;;;;19.60;11.40;;;16.70;64.20;;;;;;4859393;29;20596;-87
2023/05/20 07:43:30;;;;;;;19.85;11.05;;;16.80;63.40;;;;;;4867279;29;20039;-85
2023/05/20 07:45:58;;;;;;;17.85;11.23;;;16.70;63.60;;;;;;4882385;29;20036;-87
2023/05/20 07:48:24;;;;;;;18.17;11.60;;;16.60;64.70;;;;;;4863294;29;20088;-88
2023/05/20 07:50:50;;;;;;;18.77;11.35;;;16.60;64.60;;;;;;4865463;29;20064;-88
2023/05/20 07:53:16;;;;;;;17.52;10.48;;;16.90;64.60;;;;;;4880528;29;20040;-87
2023/05/20 07:55:44;;;;;;;15.20;9.95;;;16.80;63.40;;;;;;4873232;29;20021;-87
2023/05/20 07:58:10;;;;;;;18.17;9.80;;;17.30;64.30;;;;;;4879438;29;20037;-88
2023/05/20 08:00:36;;;;;;;14.15;9.88;;;17.30;63.20;;;;;;4869869;29;20504;-88
2023/05/20 08:03:02;;;;;;;16.67;10.32;;;17.20;62.40;;;;;;4866493;29;20445;-88
2023/05/20 08:05:28;;;;;;;16.17;9.50;;;17.30;63.00;;;;;;4873252;29;20036;-89
2023/05/20 08:07:55;;;;;;;14.57;9.55;;;17.60;62.70;;;;;;4868282;29;20041;-88
2023/05/20 08:10:21;;;;;;;15.57;9.45;;;17.60;62.50;;;;;;4871793;29;20215;-88
2023/05/20 08:12:50;;;;;;;14.15;8.88;;;17.90;62.60;;;;;;4863236;29;20129;-88
2023/05/20 08:15:15;;;;;;;16.20;9.68;;;18.00;61.40;;;;;;4864885;29;20059;-87
2023/05/20 08:17:41;;;;;;;14.82;9.43;;;18.10;60.70;;;;;;4861986;29;20069;-86
2023/05/20 08:20:09;;;;;;;15.90;9.27;;;18.00;59.10;;;;;;4869698;29;20048;-89
2023/05/20 08:22:37;;;;;;;16.13;9.43;;;17.90;60.10;;;;;;4870415;29;20048;-87
2023/05/20 08:25:08;;;;;;;13.73;8.60;;;17.90;59.60;;;;;;4861248;29;20029;-88
2023/05/20 08:27:35;;;;;;;13.30;8.07;;;18.10;60.60;;;;;;4884169;29;20045;-88
2023/05/20 08:30:03;;;;;;;10.95;7.43;;;18.60;59.70;;;;;;4871164;29;20053;-88
2023/05/20 08:32:28;;;;;;;14.23;8.23;;;18.60;58.80;;;;;;4867130;29;20053;-88
2023/05/20 08:34:54;;;;;;;13.32;8.27;;;18.60;58.50;;;;;;4877522;29;20057;-87
2023/05/20 08:37:20;;;;;;;12.75;8.50;;;18.50;59.30;;;;;;4871537;29;20040;-89
2023/05/20 08:39:48;;;;;;;14.18;8.20;;;18.50;58.70;;;;;;4868460;29;20033;-86
2023/05/20 08:42:15;;;;;;;14.60;9.38;;;18.40;58.60;;;;;;4867585;29;20540;-86
2023/05/20 08:44:45;;;;;;;12.43;8.02;;;18.60;58.10;;;;;;4884414;29;20032;-87
2023/05/20 08:47:12;;;;;;;13.35;9.07;;;18.60;57.80;;;;;;4881554;29;20044;-87
2023/05/20 08:49:38;;;;;;;15.95;8.38;;;18.60;58.70;;;;;;4877528;29;20561;-87
2023/05/20 08:52:08;;;;;;;14.30;7.97;;;18.60;57.90;;;;;;4865104;29;20101;-87
2023/05/20 08:54:47;;;;;;;11.90;7.97;;;18.80;58.20;;;;;;4873092;29;20036;-89
2023/05/20 08:57:12;;;;;;;12.45;8.93;;;19.00;57.10;;;;;;4879421;29;20072;-88
2023/05/20 08:59:43;;;;;;;13.85;8.30;;;19.10;57.50;;;;;;4880799;29;20037;-88
2023/05/20 09:02:12;;;;;;;12.77;7.13;;;19.20;56.10;;;;;;4867930;29;20053;-87
2023/05/20 09:04:38;;;;;;;11.95;7.18;;;19.00;56.70;;;;;;4861018;29;20033;-88
2023/05/20 09:07:04;;;;;;;11.15;7.03;;;19.20;57.50;;;;;;4864247;29;20049;-88
2023/05/20 09:09:32;;;;;;;12.05;7.80;;;19.50;54.40;;;;;;4863652;29;20082;-87
2023/05/20 09:11:59;;;;;;;12.40;6.65;;;19.30;54.40;;;;;;4879401;29;20560;-87
2023/05/20 09:14:27;;;;;;;11.57;7.18;;;19.00;54.90;;;;;;4878351;29;20409;-87
2023/05/20 09:16:55;;;;;;;12.50;7.13;;;19.00;54.10;;;;;;4872990;29;20093;-87
2023/05/20 09:19:22;;;;;;;12.75;7.47;;;19.10;54.70;;;;;;4874659;29;20136;-88
2023/05/20 09:21:50;;;;;;;9.93;6.75;;;19.10;54.90;;;;;;4874835;29;20271;-87
2023/05/20 09:24:22;;;;;;;12.05;6.90;;;19.20;55.00;;;;;;4873007;29;20454;-88
2023/05/20 09:26:50;;;;;;;12.05;6.18;;;19.50;52.80;;;;;;4892245;29;20060;-89
2023/05/20 09:29:15;;;;;;;10.82;6.50;;;19.40;54.60;;;;;;4878835;29;20332;-88
2023/05/20 09:31:41;;;;;;;10.13;6.45;;;19.80;54.70;;;;;;4879447;29;20064;-88
2023/05/20 09:34:08;;;;;;;11.25;7.32;;;19.80;53.20;;;;;;4886886;29;20048;-87
2023/05/20 09:36:34;;;;;;;12.68;6.97;;;19.60;53.60;;;;;;4897580;29;20040;-87
2023/05/20 09:39:02;;;;;;;11.20;6.60;;;19.60;53.40;;;;;;4891733;29;20033;-86
2023/05/20 09:41:36;;;;;;;12.50;6.07;;;19.60;52.80;;;;;;4881399;29;20068;-90
2023/05/20 09:44:03;;;;;;;9.55;5.53;;;19.90;51.30;;;;;;4895684;29;20055;-87
2023/05/20 09:46:30;;;;;;;12.85;5.13;;;19.70;50.80;;;;;;4886540;29;20367;-87
2023/05/20 09:48:55;;;;;;;14.77;5.93;;;19.70;50.80;;;;;;4904139;29;20402;-88
2023/05/20 09:51:23;;;;;;;8.43;5.35;;;19.50;49.30;;;;;;4883413;29;20113;-89
2023/05/20 09:53:50;;;;;;;11.27;5.70;;;19.60;50.20;;;;;;4881202;29;20028;-89
2023/05/20 09:56:18;;;;;;;11.23;5.93;;;19.60;51.00;;;;;;4882906;29;20095;-87
2023/05/20 09:58:46;;;;;;;12.07;6.30;;;19.90;50.50;;;;;;4890309;29;21179;-86
2023/05/20 10:01:12;;;;;;;10.68;6.25;;;20.20;48.80;;;;;;4897319;29;20584;-88
2023/05/20 10:03:38;;;;;;;11.10;5.68;;;20.20;49.90;;;;;;4878056;29;20036;-88
2023/05/20 10:06:19;;;;;;;15.60;6.70;;;20.20;48.20;;;;;;4870858;29;20402;-90
2023/05/20 10:08:59;;;;;;;11.80;5.90;;;20.30;49.60;;;;;;4869059;29;20119;-89
2023/05/20 10:12:05;;;;;;;11.65;6.30;;;20.80;50.80;;;;;;4877851;29;20246;-89
2023/05/20 10:14:39;;;;;;;12.43;6.55;;;20.40;48.60;;;;;;4891123;29;20075;-89
2023/05/20 10:17:24;;;;;;;12.23;6.53;;;19.80;50.70;;;;;;4895449;29;20083;-87
2023/05/20 10:19:56;;;;;;;11.85;6.18;;;19.60;50.80;;;;;;4874208;29;20084;-89
2023/05/20 10:22:30;;;;;;;11.55;6.25;;;19.60;51.00;;;;;;4868905;29;20041;-87
2023/05/20 10:25:05;;;;;;;9.32;5.90;;;20.20;51.50;;;;;;4883438;29;20020;-87
2023/05/20 10:27:45;;;;;;;13.40;6.35;;;20.40;49.80;;;;;;4884417;29;20044;-90
2023/05/20 10:30:21;;;;;;;10.20;6.20;;;20.10;50.00;;;;;;4879345;29;20025;-87
2023/05/20 10:33:01;;;;;;;10.95;6.32;;;20.30;49.80;;;;;;4873655;29;20093;-89
2023/05/20 10:35:30;;;;;;;10.43;6.82;;;20.60;49.90;;;;;;4879996;29;20032;-89
2023/05/20 10:38:26;;;;;;;9.85;5.65;;;20.30;50.10;;;;;;4883707;29;20045;-89
2023/05/20 10:40:52;;;;;;;11.13;6.28;;;20.60;49.20;;;;;;4859733;29;20058;-89
2023/05/20 10:43:27;;;;;;;11.30;6.75;;;20.60;49.40;;;;;;4876169;29;20017;-90
2023/05/20 10:45:59;;;;;;;10.73;6.50;;;20.10;50.70;;;;;;4875629;29;20406;-90
2023/05/20 10:48:32;;;;;;;9.45;6.30;;;20.40;51.60;;;;;;4874253;29;20084;-89
2023/05/20 10:51:02;;;;;;;10.35;5.43;;;20.90;50.60;;;;;;4865148;29;20025;-89
2023/05/20 10:53:36;;;;;;;10.07;5.65;;;20.80;49.60;;;;;;4888504;29;20635;-89
2023/05/20 10:56:03;;;;;;;11.40;5.72;;;20.50;48.80;;;;;;4866815;29;20058;-89
2023/05/20 10:58:39;;;;;;;11.52;5.80;;;20.30;49.90;;;;;;4884470;29;20569;-90
2023/05/20 11:01:05;;;;;;;8.65;5.63;;;20.60;49.00;;;;;;4871881;29;20136;-90
2023/05/20 11:03:32;;;;;;;9.57;5.10;;;20.60;48.40;;;;;;4880490;29;20084;-90
2023/05/20 11:05:57;;;;;;;10.00;5.40;;;20.60;48.50;;;;;;4882807;29;20037;-87
2023/05/20 11:08:29;;;;;;;11.50;6.10;;;20.60;47.50;;;;;;4895130;29;20120;-88
2023/05/20 11:10:56;;;;;;;11.45;5.47;;;20.50;47.20;;;;;;4881301;29;20040;-86
2023/05/20 11:13:22;;;;;;;11.63;5.82;;;20.10;47.20;;;;;;4876606;29;20021;-88
2023/05/20 11:15:48;;;;;;;11.18;5.50;;;19.90;48.20;;;;;;4864853;29;20025;-89
2023/05/20 11:18:14;;;;;;;9.52;5.68;;;20.00;48.70;;;;;;4870392;29;20031;-88
2023/05/20 11:20:40;;;;;;;9.77;5.00;;;20.30;49.20;;;;;;4873709;29;20048;-89
2023/05/20 11:23:14;;;;;;;9.60;4.88;;;20.80;46.40;;;;;;4877410;29;20440;-89
2023/05/20 11:25:48;;;;;;;9.23;5.03;;;20.60;46.50;;;;;;4888985;29;20031;-90
2023/05/20 11:28:14;;;;;;;12.00;4.78;;;20.20;48.00;;;;;;4868092;29;20523;-88
2023/05/20 11:30:42;;;;;;;8.88;4.40;;;20.40;47.30;;;;;;4867056;29;20366;-87
2023/05/20 11:33:11;;;;;;;9.43;4.80;;;20.60;47.50;;;;;;4864905;29;20089;-90
2023/05/20 11:35:52;;;;;;;9.90;5.80;;;20.90;47.90;;;;;;4882131;29;20021;-90
2023/05/20 11:38:19;;;;;;;9.75;4.90;;;20.80;47.60;;;;;;4860123;29;20048;-91
2023/05/20 11:40:52;;;;;;;10.20;4.25;;;20.90;49.20;;;;;;4875868;29;20458;-90
2023/05/20 11:43:20;;;;;;;10.50;5.40;;;21.10;47.50;;;;;;4866309;29;20040;-89
2023/05/20 11:46:05;;;;;;;9.32;4.70;;;20.80;45.60;;;;;;4889906;29;20024;-89
2023/05/20 11:48:33;;;;;;;7.22;4.07;;;20.30;47.00;;;;;;4881983;29;20512;-89
2023/05/20 11:50:58;;;;;;;11.98;4.85;;;19.90;46.80;;;;;;4857911;29;20100;-89
2023/05/20 11:53:25;;;;;;;8.05;4.10;;;20.10;47.60;;;;;;4862478;29;20116;-89
2023/05/20 11:55:52;;;;;;;9.93;4.70;;;20.40;47.10;;;;;;4862555;29;20378;-89
2023/05/20 11:58:20;;;;;;;9.55;4.35;;;20.50;46.20;;;;;;4865713;29;20458;-90
2023/05/20 12:00:46;;;;;;;8.82;4.05;;;20.60;47.60;;;;;;4861651;29;20048;-88
2023/05/20 12:03:12;;;;;;;13.32;4.68;;;20.80;46.80;;;;;;4858058;29;20029;-89
2023/05/20 12:05:38;;;;;;;10.07;4.00;;;21.10;45.60;;;;;;4862478;29;20041;-88
2023/05/20 12:08:05;;;;;;;8.38;4.10;;;21.10;44.90;;;;;;4861722;29;20139;-90
2023/05/20 12:10:31;;;;;;;11.20;4.70;;;21.60;43.70;;;;;;4860285;29;20053;-89
2023/05/20 12:12:57;;;;;;;7.93;4.30;;;22.10;42.80;;;;;;4866407;29;20037;-87
2023/05/20 12:15:26;;;;;;;7.35;4.15;;;22.20;44.50;;;;;;4879585;29;20101;-88
2023/05/20 12:17:52;;;;;;;10.27;3.75;;;22.30;41.50;;;;;;4879916;29;20079;-88
2023/05/20 12:20:21;;;;;;;7.38;4.35;;;22.10;42.30;;;;;;4884352;29;20064;-90
2023/05/20 12:22:50;;;;;;;9.68;4.53;;;22.50;42.90;;;;;;4860608;29;20104;-87
2023/05/20 12:25:18;;;;;;;7.78;3.83;;;22.90;42.20;;;;;;4866637;29;20044;-88
2023/05/20 12:27:47;;;;;;;7.13;3.72;;;22.50;41.30;;;;;;4886278;29;20025;-89
2023/05/20 12:30:17;;;;;;;10.30;4.03;;;21.90;43.20;;;;;;4879895;29;20089;-85
2023/05/20 12:32:45;;;;;;;9.05;3.95;;;21.80;43.30;;;;;;4848647;29;20112;-89
2023/05/20 12:35:11;;;;;;;7.72;3.97;;;22.10;42.20;;;;;;4880626;29;20021;-87